Aérodrome :
LOGIN :

S'inscrire | Disclaimer

   EN    FR    IT 

 










Légende :    VFR   VFR Marginal   IFR   IFR Intensif   IFR Très Intensif
Visi : 
Plafond : 
>= 8 km
>= 3000ft
5 à 8 km
1000 à 3000 ft
1500m à 5 km
500 à 1000 ft
800 à 1500m
200 à 500 ft
< 800m
< 200 ft
Symboles :   Orages  Brouillard  Fortes neiges  Fortes précipitations  Vent > 20 kt
SIGMETs :   Divers  Orages  Givrage  Turbulence  Onde Orograph.  Cendres Volcan.






- Altitude de l'aérodrome : 375 ft
- Code IATA : MST


EHBK - Maastricht Aachen

DERNIER METAR :
  • 271025Z AUTO 19003KT 9999 NCD 07/05 Q1019 NOSIG

METARs EXPIRÉS :
  • 270955Z AUTO 16003KT 130V210 9999 NCD 07/05 Q1019 NOSIG
  • 270925Z AUTO 13003KT 090V210 9999 FEW011/// OVC037/// 06/04 Q1019 NOSIG
  • 270855Z AUTO 12002KT 9999 FEW007 OVC037 05/04 Q1019 NOSIG
  • 270825Z AUTO VRB01KT 9999 OVC007 05/04 Q1019 BECMG CAVOK
  • 270755Z AUTO 18002KT 9000 OVC008 05/04 Q1019 TEMPO BKN035
  • 270725Z AUTO 15002KT 8000 BKN007 OVC033 05/03 Q1019 TEMPO BKN007

TAF AMD TAF EHBK
Valide du 27 à 06h jusqu'au 28 à 12h UTC


270634Z 2706/2812 12003KT 9999 BKN005
BECMG 2707/2709 CAVOK
PROB30 2720/2809 2500 BR MIFG



MET'MAP, la Météo Aéronautique d'un coup d'oeil ! - Copyright ORBIFLY Décembre 2007 - Disclaimer

ORBIFLY MET'MAP TEAM :

Programmation & Développement : Alexandra Zaïnal
Sur une idée originale de : Baudouin d'Aumeries
Assistance à la programmation : Marc-Olivier Méhu
Soutien technique & logistique : Manuel Goepfert

Contact : metmap@orbifly.com




SOURCES & CREDITS :

   NOAA